sensor_id;sensor_type;location;lat;lon;timestamp;temperature;humidity
12384;DHT22;6256;63.808;20.336;2023-02-28T00:01:01;5.10;99.90
12384;DHT22;6256;63.808;20.336;2023-02-28T00:03:27;5.20;99.90
12384;DHT22;6256;63.808;20.336;2023-02-28T00:05:52;5.20;99.90
12384;DHT22;6256;63.808;20.336;2023-02-28T00:08:18;5.20;99.90
12384;DHT22;6256;63.808;20.336;2023-02-28T00:10:44;5.10;99.90
12384;DHT22;6256;63.808;20.336;2023-02-28T00:13:09;5.10;99.90
12384;DHT22;6256;63.808;20.336;2023-02-28T00:15:36;5.10;99.90
12384;DHT22;6256;63.808;20.336;2023-02-28T00:18:05;5.10;99.90
12384;DHT22;6256;63.808;20.336;2023-02-28T00:20:30;5.10;99.90
12384;DHT22;6256;63.808;20.336;2023-02-28T00:22:56;5.00;99.90
12384;DHT22;6256;63.808;20.336;2023-02-28T00:25:24;5.00;99.90
12384;DHT22;6256;63.808;20.336;2023-02-28T00:27:50;5.00;99.90
12384;DHT22;6256;63.808;20.336;2023-02-28T00:30:22;5.00;99.90
12384;DHT22;6256;63.808;20.336;2023-02-28T00:32:48;4.90;99.90
12384;DHT22;6256;63.808;20.336;2023-02-28T00:35:14;5.00;99.90
12384;DHT22;6256;63.808;20.336;2023-02-28T00:37:40;4.90;99.90
12384;DHT22;6256;63.808;20.336;2023-02-28T00:40:07;4.90;99.90
12384;DHT22;6256;63.808;20.336;2023-02-28T00:42:34;4.90;99.90
12384;DHT22;6256;63.808;20.336;2023-02-28T00:45:00;4.80;99.90
12384;DHT22;6256;63.808;20.336;2023-02-28T00:47:26;4.70;99.90
12384;DHT22;6256;63.808;20.336;2023-02-28T00:49:52;4.60;99.90
12384;DHT22;6256;63.808;20.336;2023-02-28T00:52:17;4.50;99.90
12384;DHT22;6256;63.808;20.336;2023-02-28T00:54:43;4.50;99.90
12384;DHT22;6256;63.808;20.336;2023-02-28T00:57:09;4.40;99.90
12384;DHT22;6256;63.808;20.336;2023-02-28T00:59:35;4.40;99.90
12384;DHT22;6256;63.808;20.336;2023-02-28T01:02:00;4.50;99.90
12384;DHT22;6256;63.808;20.336;2023-02-28T01:04:26;4.50;99.90
12384;DHT22;6256;63.808;20.336;2023-02-28T01:06:52;4.40;99.90
12384;DHT22;6256;63.808;20.336;2023-02-28T01:09:19;4.40;99.90
12384;DHT22;6256;63.808;20.336;2023-02-28T01:11:44;4.50;99.90
12384;DHT22;6256;63.808;20.336;2023-02-28T01:14:15;4.60;99.90
12384;DHT22;6256;63.808;20.336;2023-02-28T01:16:41;4.60;99.90
12384;DHT22;6256;63.808;20.336;2023-02-28T01:19:07;4.60;99.90
12384;DHT22;6256;63.808;20.336;2023-02-28T01:21:33;4.60;99.90
12384;DHT22;6256;63.808;20.336;2023-02-28T01:24:00;4.50;99.90
12384;DHT22;6256;63.808;20.336;2023-02-28T01:26:25;4.50;99.90
12384;DHT22;6256;63.808;20.336;2023-02-28T01:28:52;4.50;99.90
12384;DHT22;6256;63.808;20.336;2023-02-28T01:31:19;4.60;99.90
12384;DHT22;6256;63.808;20.336;2023-02-28T01:33:46;4.60;99.90
12384;DHT22;6256;63.808;20.336;2023-02-28T01:36:18;4.60;99.90
12384;DHT22;6256;63.808;20.336;2023-02-28T01:38:44;4.60;99.90
12384;DHT22;6256;63.808;20.336;2023-02-28T01:41:16;4.70;99.90
12384;DHT22;6256;63.808;20.336;2023-02-28T01:46:08;4.90;99.90
12384;DHT22;6256;63.808;20.336;2023-02-28T01:48:46;4.90;99.90
12384;DHT22;6256;63.808;20.336;2023-02-28T01:51:26;4.90;99.90
12384;DHT22;6256;63.808;20.336;2023-02-28T01:54:02;4.90;99.90
12384;DHT22;6256;63.808;20.336;2023-02-28T01:56:33;5.00;99.90
12384;DHT22;6256;63.808;20.336;2023-02-28T01:59:00;5.10;99.90
12384;DHT22;6256;63.808;20.336;2023-02-28T02:01:27;5.10;99.90
12384;DHT22;6256;63.808;20.336;2023-02-28T02:03:55;5.10;99.90
12384;DHT22;6256;63.808;20.336;2023-02-28T02:06:29;5.10;99.90
12384;DHT22;6256;63.808;20.336;2023-02-28T02:08:55;5.10;99.90
12384;DHT22;6256;63.808;20.336;2023-02-28T02:11:22;5.10;99.90
12384;DHT22;6256;63.808;20.336;2023-02-28T02:25:34;5.00;99.90
12384;DHT22;6256;63.808;20.336;2023-02-28T02:36:50;5.00;99.90
12384;DHT22;6256;63.808;20.336;2023-02-28T02:39:48;5.00;99.90
12384;DHT22;6256;63.808;20.336;2023-02-28T02:42:21;4.90;99.90
12384;DHT22;6256;63.808;20.336;2023-02-28T02:44:55;5.00;99.90
12384;DHT22;6256;63.808;20.336;2023-02-28T02:47:26;5.00;99.90
12384;DHT22;6256;63.808;20.336;2023-02-28T02:49:55;5.00;99.90
12384;DHT22;6256;63.808;20.336;2023-02-28T02:52:27;4.90;99.90
12384;DHT22;6256;63.808;20.336;2023-02-28T02:54:55;4.90;99.90
12384;DHT22;6256;63.808;20.336;2023-02-28T02:57:31;4.90;99.90
12384;DHT22;6256;63.808;20.336;2023-02-28T03:00:00;4.90;99.90
12384;DHT22;6256;63.808;20.336;2023-02-28T03:02:30;4.90;99.90
12384;DHT22;6256;63.808;20.336;2023-02-28T03:05:03;4.90;99.90
12384;DHT22;6256;63.808;20.336;2023-02-28T03:07:33;4.80;99.90
12384;DHT22;6256;63.808;20.336;2023-02-28T03:09:58;4.80;99.90
12384;DHT22;6256;63.808;20.336;2023-02-28T03:12:40;4.80;99.90
12384;DHT22;6256;63.808;20.336;2023-02-28T03:15:22;4.90;99.90
12384;DHT22;6256;63.808;20.336;2023-02-28T03:18:41;4.90;99.90
12384;DHT22;6256;63.808;20.336;2023-02-28T03:21:18;4.90;99.90
12384;DHT22;6256;63.808;20.336;2023-02-28T03:26:27;4.70;99.90
12384;DHT22;6256;63.808;20.336;2023-02-28T03:31:33;4.70;99.90
12384;DHT22;6256;63.808;20.336;2023-02-28T03:34:07;4.60;99.90
12384;DHT22;6256;63.808;20.336;2023-02-28T03:36:48;4.60;99.90
12384;DHT22;6256;63.808;20.336;2023-02-28T03:39:19;4.60;99.90
12384;DHT22;6256;63.808;20.336;2023-02-28T03:41:52;4.50;99.90
12384;DHT22;6256;63.808;20.336;2023-02-28T03:44:32;4.40;99.90
12384;DHT22;6256;63.808;20.336;2023-02-28T03:47:16;4.40;99.90
12384;DHT22;6256;63.808;20.336;2023-02-28T03:49:48;4.40;99.90
12384;DHT22;6256;63.808;20.336;2023-02-28T03:52:15;4.30;99.90
12384;DHT22;6256;63.808;20.336;2023-02-28T03:54:50;4.20;99.90
12384;DHT22;6256;63.808;20.336;2023-02-28T03:57:42;4.20;99.90
12384;DHT22;6256;63.808;20.336;2023-02-28T04:00:20;4.20;99.90
12384;DHT22;6256;63.808;20.336;2023-02-28T04:02:46;4.10;99.90
12384;DHT22;6256;63.808;20.336;2023-02-28T04:05:19;4.10;99.90
12384;DHT22;6256;63.808;20.336;2023-02-28T04:07:45;4.10;99.90
12384;DHT22;6256;63.808;20.336;2023-02-28T04:10:11;4.20;99.90
12384;DHT22;6256;63.808;20.336;2023-02-28T04:12:38;4.20;99.90
12384;DHT22;6256;63.808;20.336;2023-02-28T04:15:04;4.10;99.90
12384;DHT22;6256;63.808;20.336;2023-02-28T04:17:30;4.00;99.90
12384;DHT22;6256;63.808;20.336;2023-02-28T04:19:56;4.00;99.90
12384;DHT22;6256;63.808;20.336;2023-02-28T04:22:23;3.90;99.90
12384;DHT22;6256;63.808;20.336;2023-02-28T04:24:51;3.90;99.90
12384;DHT22;6256;63.808;20.336;2023-02-28T04:27:20;3.90;99.90
12384;DHT22;6256;63.808;20.336;2023-02-28T04:29:46;3.90;99.90
12384;DHT22;6256;63.808;20.336;2023-02-28T04:32:12;3.80;99.90
12384;DHT22;6256;63.808;20.336;2023-02-28T04:34:38;3.80;99.90
12384;DHT22;6256;63.808;20.336;2023-02-28T04:37:04;3.70;99.90
12384;DHT22;6256;63.808;20.336;2023-02-28T04:39:30;3.70;99.90
12384;DHT22;6256;63.808;20.336;2023-02-28T04:41:59;3.60;99.90
12384;DHT22;6256;63.808;20.336;2023-02-28T04:44:25;3.60;99.90
12384;DHT22;6256;63.808;20.336;2023-02-28T04:46:51;3.60;99.90
12384;DHT22;6256;63.808;20.336;2023-02-28T04:49:16;3.60;99.90
12384;DHT22;6256;63.808;20.336;2023-02-28T04:51:42;3.50;99.90
12384;DHT22;6256;63.808;20.336;2023-02-28T04:54:08;3.50;99.90
12384;DHT22;6256;63.808;20.336;2023-02-28T04:56:34;3.50;99.90
12384;DHT22;6256;63.808;20.336;2023-02-28T04:58:59;3.40;99.90
12384;DHT22;6256;63.808;20.336;2023-02-28T05:03:54;3.40;99.90
12384;DHT22;6256;63.808;20.336;2023-02-28T05:06:21;3.40;99.90
12384;DHT22;6256;63.808;20.336;2023-02-28T05:08:49;3.40;99.90
12384;DHT22;6256;63.808;20.336;2023-02-28T05:11:20;3.40;99.90
12384;DHT22;6256;63.808;20.336;2023-02-28T05:13:47;3.30;99.90
12384;DHT22;6256;63.808;20.336;2023-02-28T05:16:13;3.30;99.90
12384;DHT22;6256;63.808;20.336;2023-02-28T05:18:39;3.30;99.90
12384;DHT22;6256;63.808;20.336;2023-02-28T05:21:05;3.20;99.90
12384;DHT22;6256;63.808;20.336;2023-02-28T05:23:31;3.10;99.90
12384;DHT22;6256;63.808;20.336;2023-02-28T05:25:57;3.10;99.90
12384;DHT22;6256;63.808;20.336;2023-02-28T05:28:23;3.10;99.90
12384;DHT22;6256;63.808;20.336;2023-02-28T05:30:49;3.00;99.90
12384;DHT22;6256;63.808;20.336;2023-02-28T05:33:15;3.00;99.90
12384;DHT22;6256;63.808;20.336;2023-02-28T05:35:41;3.00;99.90
12384;DHT22;6256;63.808;20.336;2023-02-28T05:38:10;2.90;99.90
12384;DHT22;6256;63.808;20.336;2023-02-28T05:40:38;2.90;99.90
12384;DHT22;6256;63.808;20.336;2023-02-28T05:43:05;2.90;99.90
12384;DHT22;6256;63.808;20.336;2023-02-28T05:45:31;2.80;99.90
12384;DHT22;6256;63.808;20.336;2023-02-28T05:47:56;2.80;99.90
12384;DHT22;6256;63.808;20.336;2023-02-28T05:50:22;2.80;99.90
12384;DHT22;6256;63.808;20.336;2023-02-28T05:52:51;2.80;99.90
12384;DHT22;6256;63.808;20.336;2023-02-28T05:55:17;2.80;99.90
12384;DHT22;6256;63.808;20.336;2023-02-28T05:57:44;2.80;99.90
12384;DHT22;6256;63.808;20.336;2023-02-28T06:00:10;2.80;99.90
12384;DHT22;6256;63.808;20.336;2023-02-28T06:02:36;2.80;99.90
12384;DHT22;6256;63.808;20.336;2023-02-28T06:05:03;2.70;99.90
12384;DHT22;6256;63.808;20.336;2023-02-28T06:07:29;2.70;99.90
12384;DHT22;6256;63.808;20.336;2023-02-28T06:09:55;2.70;99.90
12384;DHT22;6256;63.808;20.336;2023-02-28T06:12:20;2.70;99.90
12384;DHT22;6256;63.808;20.336;2023-02-28T06:14:46;2.70;99.90
12384;DHT22;6256;63.808;20.336;2023-02-28T06:17:12;2.80;99.90
12384;DHT22;6256;63.808;20.336;2023-02-28T06:19:38;2.90;99.90
12384;DHT22;6256;63.808;20.336;2023-02-28T06:22:07;3.00;99.90
12384;DHT22;6256;63.808;20.336;2023-02-28T06:24:32;3.00;99.90
12384;DHT22;6256;63.808;20.336;2023-02-28T06:26:58;2.90;99.90
12384;DHT22;6256;63.808;20.336;2023-02-28T06:29:33;3.00;99.90
12384;DHT22;6256;63.808;20.336;2023-02-28T06:32:02;3.00;99.90
12384;DHT22;6256;63.808;20.336;2023-02-28T06:34:28;3.00;99.90
12384;DHT22;6256;63.808;20.336;2023-02-28T06:36:54;3.10;99.90
12384;DHT22;6256;63.808;20.336;2023-02-28T06:39:20;3.10;99.90
12384;DHT22;6256;63.808;20.336;2023-02-28T06:41:47;3.20;99.90
12384;DHT22;6256;63.808;20.336;2023-02-28T06:44:14;3.20;99.90
12384;DHT22;6256;63.808;20.336;2023-02-28T06:46:41;3.20;99.90
12384;DHT22;6256;63.808;20.336;2023-02-28T06:49:08;3.20;99.90
12384;DHT22;6256;63.808;20.336;2023-02-28T06:51:40;3.20;99.90
12384;DHT22;6256;63.808;20.336;2023-02-28T06:54:07;3.20;99.90
12384;DHT22;6256;63.808;20.336;2023-02-28T06:56:36;3.20;99.90
12384;DHT22;6256;63.808;20.336;2023-02-28T06:59:05;3.10;99.90
12384;DHT22;6256;63.808;20.336;2023-02-28T07:01:31;3.20;99.90
12384;DHT22;6256;63.808;20.336;2023-02-28T07:03:58;3.20;99.90
12384;DHT22;6256;63.808;20.336;2023-02-28T07:06:25;3.20;99.90
12384;DHT22;6256;63.808;20.336;2023-02-28T07:08:53;3.20;99.90
12384;DHT22;6256;63.808;20.336;2023-02-28T07:11:24;3.20;99.90
12384;DHT22;6256;63.808;20.336;2023-02-28T07:13:51;3.20;99.90
12384;DHT22;6256;63.808;20.336;2023-02-28T07:16:17;3.20;99.90
12384;DHT22;6256;63.808;20.336;2023-02-28T07:18:43;3.20;99.90
12384;DHT22;6256;63.808;20.336;2023-02-28T07:21:10;3.20;99.90
12384;DHT22;6256;63.808;20.336;2023-02-28T07:23:37;3.20;99.90
12384;DHT22;6256;63.808;20.336;2023-02-28T07:26:13;3.20;99.90
12384;DHT22;6256;63.808;20.336;2023-02-28T07:28:41;3.30;99.90
12384;DHT22;6256;63.808;20.336;2023-02-28T07:31:08;3.20;99.90
12384;DHT22;6256;63.808;20.336;2023-02-28T07:33:35;3.30;99.90
12384;DHT22;6256;63.808;20.336;2023-02-28T07:36:13;3.30;99.90
12384;DHT22;6256;63.808;20.336;2023-02-28T07:38:41;3.30;99.90
12384;DHT22;6256;63.808;20.336;2023-02-28T07:41:08;3.40;99.90
12384;DHT22;6256;63.808;20.336;2023-02-28T07:43:34;3.40;99.90
12384;DHT22;6256;63.808;20.336;2023-02-28T07:46:05;3.40;99.90
12384;DHT22;6256;63.808;20.336;2023-02-28T07:48:31;3.40;99.90
12384;DHT22;6256;63.808;20.336;2023-02-28T07:50:58;3.50;99.90
12384;DHT22;6256;63.808;20.336;2023-02-28T07:53:26;3.50;99.90
12384;DHT22;6256;63.808;20.336;2023-02-28T07:55:55;3.50;99.90
12384;DHT22;6256;63.808;20.336;2023-02-28T07:58:25;3.50;99.90
12384;DHT22;6256;63.808;20.336;2023-02-28T08:00:51;3.60;99.90
12384;DHT22;6256;63.808;20.336;2023-02-28T08:03:18;3.70;99.90
12384;DHT22;6256;63.808;20.336;2023-02-28T08:05:44;3.70;99.90
12384;DHT22;6256;63.808;20.336;2023-02-28T08:08:10;3.70;99.90
12384;DHT22;6256;63.808;20.336;2023-02-28T08:10:36;3.70;99.90
12384;DHT22;6256;63.808;20.336;2023-02-28T08:13:02;3.70;99.90
12384;DHT22;6256;63.808;20.336;2023-02-28T08:15:28;3.70;99.90
12384;DHT22;6256;63.808;20.336;2023-02-28T08:17:54;3.70;99.90
12384;DHT22;6256;63.808;20.336;2023-02-28T08:20:24;3.70;99.90
12384;DHT22;6256;63.808;20.336;2023-02-28T08:22:51;3.90;99.90
12384;DHT22;6256;63.808;20.336;2023-02-28T08:25:16;3.80;99.90
12384;DHT22;6256;63.808;20.336;2023-02-28T08:27:42;4.00;99.90
12384;DHT22;6256;63.808;20.336;2023-02-28T08:30:11;4.10;99.90
12384;DHT22;6256;63.808;20.336;2023-02-28T08:32:37;4.10;99.90
12384;DHT22;6256;63.808;20.336;2023-02-28T08:35:04;4.00;99.90
12384;DHT22;6256;63.808;20.336;2023-02-28T08:37:30;4.10;99.90
12384;DHT22;6256;63.808;20.336;2023-02-28T08:39:55;4.20;99.90
12384;DHT22;6256;63.808;20.336;2023-02-28T08:42:21;4.10;99.90
12384;DHT22;6256;63.808;20.336;2023-02-28T08:44:47;4.10;99.90
12384;DHT22;6256;63.808;20.336;2023-02-28T08:47:12;4.20;99.90
12384;DHT22;6256;63.808;20.336;2023-02-28T08:49:38;4.20;99.90
12384;DHT22;6256;63.808;20.336;2023-02-28T08:52:04;4.20;99.90
12384;DHT22;6256;63.808;20.336;2023-02-28T08:54:32;4.20;99.90
12384;DHT22;6256;63.808;20.336;2023-02-28T08:56:59;4.20;99.90
12384;DHT22;6256;63.808;20.336;2023-02-28T08:59:25;4.20;99.90
12384;DHT22;6256;63.808;20.336;2023-02-28T09:01:51;4.10;99.90
12384;DHT22;6256;63.808;20.336;2023-02-28T09:04:17;4.10;99.90
12384;DHT22;6256;63.808;20.336;2023-02-28T09:06:43;4.20;99.90
12384;DHT22;6256;63.808;20.336;2023-02-28T09:09:10;4.20;99.90
12384;DHT22;6256;63.808;20.336;2023-02-28T09:11:36;4.10;99.90
12384;DHT22;6256;63.808;20.336;2023-02-28T09:14:05;4.10;99.90
12384;DHT22;6256;63.808;20.336;2023-02-28T09:16:31;4.10;99.90
12384;DHT22;6256;63.808;20.336;2023-02-28T09:19:01;4.10;99.90
12384;DHT22;6256;63.808;20.336;2023-02-28T09:21:29;4.10;99.90
12384;DHT22;6256;63.808;20.336;2023-02-28T09:23:54;4.20;99.90
12384;DHT22;6256;63.808;20.336;2023-02-28T09:26:26;4.20;99.90
12384;DHT22;6256;63.808;20.336;2023-02-28T09:28:53;4.00;98.00
12384;DHT22;6256;63.808;20.336;2023-02-28T09:31:23;4.00;99.20
12384;DHT22;6256;63.808;20.336;2023-02-28T09:33:51;4.10;99.90
12384;DHT22;6256;63.808;20.336;2023-02-28T09:36:17;4.20;99.90
12384;DHT22;6256;63.808;20.336;2023-02-28T09:38:43;4.20;99.90
12384;DHT22;6256;63.808;20.336;2023-02-28T09:41:22;4.20;99.60
12384;DHT22;6256;63.808;20.336;2023-02-28T09:43:55;4.20;99.70
12384;DHT22;6256;63.808;20.336;2023-02-28T09:46:33;4.10;99.90
12384;DHT22;6256;63.808;20.336;2023-02-28T09:49:21;4.00;98.50
12384;DHT22;6256;63.808;20.336;2023-02-28T09:54:29;3.80;99.40
12384;DHT22;6256;63.808;20.336;2023-02-28T10:02:46;3.90;99.90
12384;DHT22;6256;63.808;20.336;2023-02-28T10:05:17;4.00;99.90
12384;DHT22;6256;63.808;20.336;2023-02-28T10:10:43;4.10;98.70
12384;DHT22;6256;63.808;20.336;2023-02-28T10:16:03;4.20;98.80
12384;DHT22;6256;63.808;20.336;2023-02-28T10:18:42;4.30;99.90
12384;DHT22;6256;63.808;20.336;2023-02-28T10:21:23;4.40;99.90
12384;DHT22;6256;63.808;20.336;2023-02-28T10:23:55;4.50;98.90
12384;DHT22;6256;63.808;20.336;2023-02-28T10:26:22;4.80;99.10
12384;DHT22;6256;63.808;20.336;2023-02-28T10:28:52;4.90;97.90
12384;DHT22;6256;63.808;20.336;2023-02-28T10:31:19;5.10;98.20
12384;DHT22;6256;63.808;20.336;2023-02-28T10:33:46;5.30;97.40
12384;DHT22;6256;63.808;20.336;2023-02-28T10:36:15;5.60;99.20
12384;DHT22;6256;63.808;20.336;2023-02-28T10:38:43;5.80;97.20
12384;DHT22;6256;63.808;20.336;2023-02-28T10:41:11;5.80;98.50
12384;DHT22;6256;63.808;20.336;2023-02-28T10:43:38;5.80;99.00
12384;DHT22;6256;63.808;20.336;2023-02-28T10:48:45;5.80;99.50
12384;DHT22;6256;63.808;20.336;2023-02-28T10:51:15;5.40;97.30
12384;DHT22;6256;63.808;20.336;2023-02-28T10:53:52;5.30;99.10
12384;DHT22;6256;63.808;20.336;2023-02-28T10:56:20;5.40;98.80
12384;DHT22;6256;63.808;20.336;2023-02-28T10:58:57;5.50;99.90
12384;DHT22;6256;63.808;20.336;2023-02-28T11:01:42;5.40;98.10
12384;DHT22;6256;63.808;20.336;2023-02-28T11:07:21;5.40;97.10
12384;DHT22;6256;63.808;20.336;2023-02-28T11:09:55;5.60;98.20
12384;DHT22;6256;63.808;20.336;2023-02-28T11:12:38;5.70;97.50
12384;DHT22;6256;63.808;20.336;2023-02-28T11:15:23;5.60;96.90
12384;DHT22;6256;63.808;20.336;2023-02-28T11:17:59;5.50;95.70
12384;DHT22;6256;63.808;20.336;2023-02-28T11:20:29;5.20;95.80
12384;DHT22;6256;63.808;20.336;2023-02-28T11:22:57;5.00;97.20
12384;DHT22;6256;63.808;20.336;2023-02-28T11:25:33;5.00;97.30
12384;DHT22;6256;63.808;20.336;2023-02-28T11:28:06;5.20;98.20
12384;DHT22;6256;63.808;20.336;2023-02-28T11:30:39;5.20;98.40
12384;DHT22;6256;63.808;20.336;2023-02-28T11:33:27;5.20;98.70
12384;DHT22;6256;63.808;20.336;2023-02-28T11:35:58;5.10;98.50
12384;DHT22;6256;63.808;20.336;2023-02-28T11:38:25;5.00;98.10
12384;DHT22;6256;63.808;20.336;2023-02-28T11:43:44;4.80;97.50
12384;DHT22;6256;63.808;20.336;2023-02-28T11:46:29;4.60;98.10
12384;DHT22;6256;63.808;20.336;2023-02-28T11:49:15;4.60;99.10
12384;DHT22;6256;63.808;20.336;2023-02-28T11:52:00;4.40;99.80
12384;DHT22;6256;63.808;20.336;2023-02-28T11:59:55;4.50;99.50
12384;DHT22;6256;63.808;20.336;2023-02-28T12:05:45;4.50;99.80
12384;DHT22;6256;63.808;20.336;2023-02-28T12:08:42;4.60;99.90
12384;DHT22;6256;63.808;20.336;2023-02-28T12:16:55;4.70;99.90
12384;DHT22;6256;63.808;20.336;2023-02-28T12:19:39;4.70;99.90
12384;DHT22;6256;63.808;20.336;2023-02-28T12:27:52;4.90;99.90
12384;DHT22;6256;63.808;20.336;2023-02-28T12:30:32;5.00;99.90
12384;DHT22;6256;63.808;20.336;2023-02-28T12:33:11;5.10;99.90
12384;DHT22;6256;63.808;20.336;2023-02-28T12:35:49;5.00;99.90
12384;DHT22;6256;63.808;20.336;2023-02-28T12:38:28;5.00;99.90
12384;DHT22;6256;63.808;20.336;2023-02-28T12:41:04;5.10;99.90
12384;DHT22;6256;63.808;20.336;2023-02-28T12:43:42;5.10;99.90
12384;DHT22;6256;63.808;20.336;2023-02-28T12:46:25;5.00;98.30
12384;DHT22;6256;63.808;20.336;2023-02-28T12:49:29;4.90;99.60
12384;DHT22;6256;63.808;20.336;2023-02-28T12:51:53;5.00;99.90
12384;DHT22;6256;63.808;20.336;2023-02-28T12:54:26;5.00;99.90
12384;DHT22;6256;63.808;20.336;2023-02-28T12:59:59;4.90;99.90
12384;DHT22;6256;63.808;20.336;2023-02-28T13:10:53;4.70;98.00
12384;DHT22;6256;63.808;20.336;2023-02-28T13:13:27;4.70;99.90
12384;DHT22;6256;63.808;20.336;2023-02-28T13:16:00;4.70;99.90
12384;DHT22;6256;63.808;20.336;2023-02-28T13:20:58;4.70;99.80
12384;DHT22;6256;63.808;20.336;2023-02-28T13:26:19;4.70;99.80
12384;DHT22;6256;63.808;20.336;2023-02-28T13:31:19;4.80;99.90
12384;DHT22;6256;63.808;20.336;2023-02-28T13:36:31;4.70;98.90
12384;DHT22;6256;63.808;20.336;2023-02-28T13:39:02;4.70;99.20
12384;DHT22;6256;63.808;20.336;2023-02-28T13:57:53;4.80;99.70
12384;DHT22;6256;63.808;20.336;2023-02-28T14:06:10;4.50;99.40
12384;DHT22;6256;63.808;20.336;2023-02-28T14:08:58;4.50;99.80
12384;DHT22;6256;63.808;20.336;2023-02-28T14:11:35;4.40;99.50
12384;DHT22;6256;63.808;20.336;2023-02-28T14:14:02;4.50;99.90
12384;DHT22;6256;63.808;20.336;2023-02-28T14:16:46;4.50;99.90
12384;DHT22;6256;63.808;20.336;2023-02-28T14:19:15;4.40;99.90
12384;DHT22;6256;63.808;20.336;2023-02-28T14:25:22;4.40;99.90
12384;DHT22;6256;63.808;20.336;2023-02-28T14:38:42;4.40;99.90
12384;DHT22;6256;63.808;20.336;2023-02-28T14:41:16;4.30;99.90
12384;DHT22;6256;63.808;20.336;2023-02-28T14:44:23;4.30;99.90
12384;DHT22;6256;63.808;20.336;2023-02-28T14:46:54;4.30;99.90
12384;DHT22;6256;63.808;20.336;2023-02-28T14:49:30;4.30;99.90
12384;DHT22;6256;63.808;20.336;2023-02-28T14:52:15;4.30;99.90
12384;DHT22;6256;63.808;20.336;2023-02-28T14:54:43;4.20;99.90
12384;DHT22;6256;63.808;20.336;2023-02-28T15:00:21;4.20;99.90
12384;DHT22;6256;63.808;20.336;2023-02-28T15:02:47;4.10;99.90
12384;DHT22;6256;63.808;20.336;2023-02-28T15:07:42;4.00;99.90
12384;DHT22;6256;63.808;20.336;2023-02-28T15:10:22;4.10;99.90
12384;DHT22;6256;63.808;20.336;2023-02-28T15:12:55;4.10;99.90
12384;DHT22;6256;63.808;20.336;2023-02-28T15:15:24;4.10;99.90
12384;DHT22;6256;63.808;20.336;2023-02-28T15:17:53;4.00;99.90
12384;DHT22;6256;63.808;20.336;2023-02-28T15:20:20;4.00;99.90
12384;DHT22;6256;63.808;20.336;2023-02-28T15:22:47;4.00;99.90
12384;DHT22;6256;63.808;20.336;2023-02-28T15:25:18;3.90;99.90
12384;DHT22;6256;63.808;20.336;2023-02-28T15:27:48;3.90;99.90
12384;DHT22;6256;63.808;20.336;2023-02-28T15:30:25;3.90;99.90
12384;DHT22;6256;63.808;20.336;2023-02-28T15:35:38;3.90;99.90
12384;DHT22;6256;63.808;20.336;2023-02-28T15:38:21;3.80;99.90
12384;DHT22;6256;63.808;20.336;2023-02-28T15:40:54;3.80;99.90
12384;DHT22;6256;63.808;20.336;2023-02-28T15:43:30;3.80;99.90
12384;DHT22;6256;63.808;20.336;2023-02-28T15:46:10;3.80;99.90
12384;DHT22;6256;63.808;20.336;2023-02-28T15:48:53;3.70;99.90
12384;DHT22;6256;63.808;20.336;2023-02-28T15:51:32;3.80;99.90
12384;DHT22;6256;63.808;20.336;2023-02-28T15:54:05;3.80;99.90
12384;DHT22;6256;63.808;20.336;2023-02-28T15:56:33;3.70;99.90
12384;DHT22;6256;63.808;20.336;2023-02-28T15:59:02;3.60;99.90
12384;DHT22;6256;63.808;20.336;2023-02-28T16:04:00;3.50;99.90
12384;DHT22;6256;63.808;20.336;2023-02-28T16:06:35;3.50;99.90
12384;DHT22;6256;63.808;20.336;2023-02-28T16:09:02;3.50;99.90
12384;DHT22;6256;63.808;20.336;2023-02-28T16:11:28;3.50;99.90
12384;DHT22;6256;63.808;20.336;2023-02-28T16:13:54;3.50;99.90
12384;DHT22;6256;63.808;20.336;2023-02-28T16:16:22;3.50;99.90
12384;DHT22;6256;63.808;20.336;2023-02-28T16:18:49;3.40;99.90
12384;DHT22;6256;63.808;20.336;2023-02-28T16:21:15;3.40;99.90
12384;DHT22;6256;63.808;20.336;2023-02-28T16:23:41;3.40;99.90
12384;DHT22;6256;63.808;20.336;2023-02-28T16:26:08;3.40;99.90
12384;DHT22;6256;63.808;20.336;2023-02-28T16:28:38;3.50;99.90
12384;DHT22;6256;63.808;20.336;2023-02-28T16:31:06;3.50;99.90
12384;DHT22;6256;63.808;20.336;2023-02-28T16:33:35;3.50;99.90
12384;DHT22;6256;63.808;20.336;2023-02-28T16:36:00;3.50;99.90
12384;DHT22;6256;63.808;20.336;2023-02-28T16:38:26;3.50;99.90
12384;DHT22;6256;63.808;20.336;2023-02-28T16:40:54;3.50;99.90
12384;DHT22;6256;63.808;20.336;2023-02-28T16:43:23;3.50;99.90
12384;DHT22;6256;63.808;20.336;2023-02-28T16:45:55;3.40;99.90
12384;DHT22;6256;63.808;20.336;2023-02-28T16:48:22;3.40;99.90
12384;DHT22;6256;63.808;20.336;2023-02-28T16:50:47;3.40;99.90
12384;DHT22;6256;63.808;20.336;2023-02-28T16:53:13;3.30;99.90
12384;DHT22;6256;63.808;20.336;2023-02-28T16:55:39;3.20;99.90
12384;DHT22;6256;63.808;20.336;2023-02-28T16:58:05;3.30;99.90
12384;DHT22;6256;63.808;20.336;2023-02-28T17:00:32;3.20;99.90
12384;DHT22;6256;63.808;20.336;2023-02-28T17:02:58;3.20;99.90
12384;DHT22;6256;63.808;20.336;2023-02-28T17:05:34;3.20;99.90
12384;DHT22;6256;63.808;20.336;2023-02-28T17:08:02;3.20;99.90
12384;DHT22;6256;63.808;20.336;2023-02-28T17:10:29;3.30;99.90
12384;DHT22;6256;63.808;20.336;2023-02-28T17:12:54;3.20;99.90
12384;DHT22;6256;63.808;20.336;2023-02-28T17:15:20;3.10;99.90
12384;DHT22;6256;63.808;20.336;2023-02-28T17:17:47;3.10;99.90
12384;DHT22;6256;63.808;20.336;2023-02-28T17:20:20;3.10;99.90
12384;DHT22;6256;63.808;20.336;2023-02-28T17:22:50;3.00;99.90
12384;DHT22;6256;63.808;20.336;2023-02-28T17:25:16;3.00;99.90
12384;DHT22;6256;63.808;20.336;2023-02-28T17:27:42;2.90;99.90
12384;DHT22;6256;63.808;20.336;2023-02-28T17:30:18;2.90;99.90
12384;DHT22;6256;63.808;20.336;2023-02-28T17:32:43;2.80;99.90
12384;DHT22;6256;63.808;20.336;2023-02-28T17:35:09;2.80;99.90
12384;DHT22;6256;63.808;20.336;2023-02-28T17:37:35;2.70;99.90
12384;DHT22;6256;63.808;20.336;2023-02-28T17:40:02;2.70;99.90
12384;DHT22;6256;63.808;20.336;2023-02-28T17:42:28;2.60;99.90
12384;DHT22;6256;63.808;20.336;2023-02-28T17:44:54;2.60;99.90
12384;DHT22;6256;63.808;20.336;2023-02-28T17:47:19;2.50;99.90
12384;DHT22;6256;63.808;20.336;2023-02-28T17:49:45;2.50;99.90
12384;DHT22;6256;63.808;20.336;2023-02-28T17:52:11;2.40;99.90
12384;DHT22;6256;63.808;20.336;2023-02-28T17:54:36;2.40;99.90
12384;DHT22;6256;63.808;20.336;2023-02-28T17:57:02;2.40;99.90
12384;DHT22;6256;63.808;20.336;2023-02-28T17:59:28;2.40;99.90
12384;DHT22;6256;63.808;20.336;2023-02-28T18:01:59;2.40;99.90
12384;DHT22;6256;63.808;20.336;2023-02-28T18:04:25;2.30;99.90
12384;DHT22;6256;63.808;20.336;2023-02-28T18:06:55;2.30;99.90
12384;DHT22;6256;63.808;20.336;2023-02-28T18:09:26;2.20;99.90
12384;DHT22;6256;63.808;20.336;2023-02-28T18:11:54;2.20;99.90
12384;DHT22;6256;63.808;20.336;2023-02-28T18:14:21;2.20;99.90
12384;DHT22;6256;63.808;20.336;2023-02-28T18:16:49;2.20;99.90
12384;DHT22;6256;63.808;20.336;2023-02-28T18:19:16;2.10;99.90
12384;DHT22;6256;63.808;20.336;2023-02-28T18:21:47;2.00;99.90
12384;DHT22;6256;63.808;20.336;2023-02-28T18:24:13;2.10;99.90